Finly, Indiana
Current Conditions -  °F | °C
As of 3:53 AM on Monday 20 Oct 2014 (Local Time) from KGEZ Reporting Station
Broken Clouds Broken Clouds  
Wind Chill: 44°   Ceiling: 10000
Heat Index: 48°   Visibility: 10mi
Dew Point: 42°   Wind: 8mph
Humidity: 80%   Direction: 190°S
Pressure: 30"   Gusts: NA
Location:  39.71°N, 85.82°W
Report Text: KGEZ 200753Z AUTO 19007KT 10SM BKN100 09/06 A3000 RMK AO2 SLP160 T00890056
Loading
Personal Weather Stations






























Interactive Weather Map New forecast layout! Learn more

10-Day Weather Forecast

Advertisements
Track Severe Weather on mobile